Time;durP1;ratioP1;P1;durP2;ratioP2;P2;SDS_P1;SDS_P2;PMS_P1;PMS_P2;Temp;Humidity;BMP_temperature;BMP_pressure;BME280_temperature;BME280_humidity;BME280_pressure;Samples;Min_cycle;Max_cycle;Signal;HPM_P1;HPM_P2
2023/06/05 00:00:26;;;;;;;1.15;0.73;;;;;;;12.52;79.84;101256.22;5169545;28;20041;-72
2023/06/05 00:02:56;;;;;;;1.33;0.80;;;;;;;12.27;81.32;101265.75;5161813;28;20026;-71
2023/06/05 00:05:27;;;;;;;2.90;0.90;;;;;;;12.35;81.09;101270.78;5162597;28;20037;-72
2023/06/05 00:07:57;;;;;;;5.95;1.00;;;;;;;12.36;80.17;101268.13;5158553;28;20026;-72
2023/06/05 00:10:28;;;;;;;2.00;0.90;;;;;;;12.46;79.49;101261.66;5170946;28;20046;-72
2023/06/05 00:12:58;;;;;;;1.27;0.77;;;;;;;12.61;79.27;101260.31;5166248;28;20113;-72
2023/06/05 00:15:30;;;;;;;1.83;0.80;;;;;;;12.67;79.10;101262.72;5164477;28;20025;-72
2023/06/05 00:18:00;;;;;;;2.08;0.98;;;;;;;12.72;79.64;101258.19;5167699;28;20118;-71
2023/06/05 00:20:30;;;;;;;3.90;1.00;;;;;;;12.83;78.96;101261.31;5171190;28;20126;-71
2023/06/05 00:23:01;;;;;;;2.15;1.00;;;;;;;12.91;78.67;101260.13;5161722;28;20038;-71
2023/06/05 00:25:31;;;;;;;2.22;0.90;;;;;;;12.97;77.70;101257.31;5168622;28;20103;-71
2023/06/05 00:28:01;;;;;;;1.67;0.90;;;;;;;12.88;78.76;101260.25;5166704;28;20528;-71
2023/06/05 00:30:31;;;;;;;2.97;1.00;;;;;;;12.79;79.03;101259.72;5167967;28;20113;-72
2023/06/05 00:33:02;;;;;;;2.80;0.90;;;;;;;12.91;79.54;101262.75;5171724;28;20033;-72
2023/06/05 00:35:32;;;;;;;4.45;1.00;;;;;;;12.84;78.68;101257.78;5164783;28;20033;-72
2023/06/05 00:38:02;;;;;;;2.50;0.90;;;;;;;12.95;78.74;101256.53;5165090;28;20026;-71
2023/06/05 00:40:33;;;;;;;1.50;0.70;;;;;;;13.00;78.86;101254.59;5152697;28;20029;-72
2023/06/05 00:43:05;;;;;;;1.88;0.90;;;;;;;12.82;79.77;101255.19;5162753;28;20031;-72
2023/06/05 00:45:35;;;;;;;2.40;0.73;;;;;;;12.75;80.12;101258.94;5155954;28;20113;-71
2023/06/05 00:48:07;;;;;;;2.17;1.00;;;;;;;12.81;80.74;101256.09;5151172;28;20153;-72
2023/06/05 00:50:37;;;;;;;1.77;0.90;;;;;;;12.79;80.35;101255.28;5157831;28;20458;-72
2023/06/05 00:53:08;;;;;;;2.28;1.00;;;;;;;12.87;79.92;101257.66;5163973;28;20128;-71
2023/06/05 00:55:38;;;;;;;2.10;0.95;;;;;;;13.07;79.27;101253.50;5163945;28;20030;-72
2023/06/05 00:58:09;;;;;;;2.17;1.00;;;;;;;13.22;79.01;101250.31;5162887;28;20026;-71
2023/06/05 01:00:40;;;;;;;1.98;0.93;;;;;;;13.37;78.55;101249.78;5166541;28;20581;-72
2023/06/05 01:03:11;;;;;;;3.80;1.00;;;;;;;13.44;78.76;101256.50;5165633;28;20033;-72
2023/06/05 01:05:43;;;;;;;1.98;0.73;;;;;;;13.47;78.89;101246.75;5149386;28;20140;-72
2023/06/05 01:08:14;;;;;;;2.65;0.90;;;;;;;13.36;79.52;101255.91;5166283;28;20030;-72
2023/06/05 01:10:44;;;;;;;2.63;1.02;;;;;;;13.45;79.01;101247.72;5168453;28;20033;-72
2023/06/05 01:13:24;;;;;;;1.42;0.90;;;;;;;13.47;79.37;101252.03;5169164;28;20037;-72
2023/06/05 01:15:56;;;;;;;1.42;0.80;;;;;;;13.51;78.99;101247.50;5162067;28;20041;-72
2023/06/05 01:18:28;;;;;;;3.92;1.10;;;;;;;13.29;79.67;101251.81;5168391;28;20163;-72
2023/06/05 01:21:01;;;;;;;2.67;1.27;;;;;;;13.18;80.66;101248.69;5167215;28;20019;-72
2023/06/05 01:23:33;;;;;;;4.13;1.00;;;;;;;13.10;81.29;101250.75;5165624;28;20041;-72
2023/06/05 01:26:07;;;;;;;4.25;0.90;;;;;;;13.18;80.36;101256.56;5169272;28;20034;-72
2023/06/05 01:28:38;;;;;;;2.90;1.33;;;;;;;13.11;81.54;101250.72;5168795;28;20209;-72
2023/06/05 01:31:15;;;;;;;3.70;1.23;;;;;;;13.08;80.50;101253.41;5167749;28;20041;-72
2023/06/05 01:33:52;;;;;;;3.22;1.00;;;;;;;12.84;82.91;101253.38;5161994;28;20443;-72
2023/06/05 01:36:23;;;;;;;7.47;1.13;;;;;;;12.89;81.42;101252.31;5170640;28;20442;-72
2023/06/05 01:38:54;;;;;;;1.85;1.02;;;;;;;13.20;80.62;101257.41;5164119;28;20038;-72
2023/06/05 01:41:26;;;;;;;1.83;0.82;;;;;;;13.25;80.20;101247.59;5169229;28;20509;-71
2023/06/05 01:43:57;;;;;;;2.28;1.00;;;;;;;13.22;79.80;101243.28;5166083;28;20594;-72
2023/06/05 01:46:27;;;;;;;2.17;0.98;;;;;;;13.16;80.12;101251.41;5169377;28;20038;-72
2023/06/05 01:49:01;;;;;;;2.22;1.05;;;;;;;13.01;80.17;101240.56;5166950;28;20026;-71
2023/06/05 01:51:31;;;;;;;2.28;0.80;;;;;;;12.93;80.88;101245.22;5164580;28;20121;-71
2023/06/05 01:54:01;;;;;;;2.35;1.00;;;;;;;13.01;80.03;101245.81;5168758;28;20027;-71
2023/06/05 01:56:32;;;;;;;3.97;1.13;;;;;;;12.93;80.13;101238.19;5173521;28;20026;-71
2023/06/05 01:59:06;;;;;;;3.00;1.10;;;;;;;12.88;81.43;101247.13;5167334;28;20036;-72
2023/06/05 02:01:37;;;;;;;2.45;1.10;;;;;;;12.87;80.79;101244.53;5171664;28;20113;-72
2023/06/05 02:04:08;;;;;;;2.47;1.00;;;;;;;12.91;80.68;101239.16;5173046;28;20121;-72
2023/06/05 02:06:42;;;;;;;2.38;0.90;;;;;;;13.01;80.69;101243.19;5170516;28;20026;-72
2023/06/05 02:09:12;;;;;;;2.40;0.95;;;;;;;12.91;80.19;101239.16;5173695;28;20256;-72
2023/06/05 02:11:42;;;;;;;3.08;1.00;;;;;;;12.89;81.23;101236.56;5173535;28;20026;-72
2023/06/05 02:14:13;;;;;;;3.22;1.00;;;;;;;12.79;82.18;101236.09;5172623;28;20046;-72
2023/06/05 02:16:43;;;;;;;3.25;1.20;;;;;;;12.78;81.46;101232.59;5170485;28;20547;-72
2023/06/05 02:19:13;;;;;;;1.60;0.90;;;;;;;12.56;82.78;101235.97;5172610;28;20139;-72
2023/06/05 02:21:44;;;;;;;4.40;1.00;;;;;;;12.53;83.92;101231.72;5168072;28;20554;-72
2023/06/05 02:24:14;;;;;;;2.13;1.00;;;;;;;12.65;82.52;101235.69;5174820;28;20402;-72
2023/06/05 02:26:45;;;;;;;4.18;1.10;;;;;;;12.32;84.03;101237.63;5173158;28;20038;-71
2023/06/05 02:29:15;;;;;;;2.58;1.20;;;;;;;12.29;83.92;101242.97;5172834;28;20117;-72
2023/06/05 02:31:45;;;;;;;3.42;1.05;;;;;;;12.04;85.21;101231.56;5173291;28;20054;-72
2023/06/05 02:34:16;;;;;;;4.25;1.00;;;;;;;12.01;86.13;101236.91;5170967;28;20383;-72
2023/06/05 02:36:46;;;;;;;3.35;1.27;;;;;;;11.85;86.49;101230.44;5173310;28;20032;-72
2023/06/05 02:39:17;;;;;;;2.33;1.23;;;;;;;12.10;85.30;101234.00;5172576;28;20538;-71
2023/06/05 02:41:47;;;;;;;3.53;1.17;;;;;;;12.21;84.23;101241.50;5172136;28;20037;-72
2023/06/05 02:44:17;;;;;;;3.03;1.10;;;;;;;12.18;84.99;101228.50;5173866;28;20448;-72
2023/06/05 02:46:48;;;;;;;1.77;0.95;;;;;;;12.13;85.84;101235.66;5168585;28;20060;-71
2023/06/05 02:49:18;;;;;;;2.10;1.10;;;;;;;12.19;85.02;101230.22;5171707;28;20072;-72
2023/06/05 02:51:48;;;;;;;4.20;1.20;;;;;;;12.37;84.29;101230.50;5170663;28;20044;-72
2023/06/05 02:54:18;;;;;;;2.72;1.38;;;;;;;12.37;84.93;101227.88;5174268;28;20568;-72
2023/06/05 02:56:49;;;;;;;4.65;1.20;;;;;;;12.28;85.05;101227.31;5172654;28;20418;-72
2023/06/05 02:59:22;;;;;;;2.80;1.00;;;;;;;12.36;84.62;101223.56;5170027;28;20034;-72
2023/06/05 03:01:54;;;;;;;2.83;1.45;;;;;;;12.35;84.22;101227.09;5172777;28;20123;-72
2023/06/05 03:04:24;;;;;;;2.83;1.10;;;;;;;12.29;85.06;101229.88;5153026;28;20419;-72
2023/06/05 03:06:56;;;;;;;4.50;1.20;;;;;;;12.24;84.76;101217.81;5171541;28;20040;-72
2023/06/05 03:09:26;;;;;;;3.40;0.90;;;;;;;12.22;84.91;101227.50;5171389;28;20053;-72
2023/06/05 03:11:58;;;;;;;2.20;1.15;;;;;;;12.12;85.48;101229.56;5171879;28;20451;-72
2023/06/05 03:14:30;;;;;;;2.40;1.10;;;;;;;12.23;85.93;101229.22;5175383;28;20029;-72
2023/06/05 03:17:01;;;;;;;1.60;0.95;;;;;;;12.07;83.46;101235.84;5174284;28;20034;-71
2023/06/05 03:19:31;;;;;;;2.80;1.00;;;;;;;11.58;85.09;101235.63;5175191;28;20410;-72
2023/06/05 03:22:01;;;;;;;4.93;1.27;;;;;;;11.77;84.62;101232.41;5169439;28;20030;-72
2023/06/05 03:24:32;;;;;;;1.92;1.00;;;;;;;11.25;84.86;101228.69;5173958;28;20080;-72
2023/06/05 03:27:02;;;;;;;2.45;1.05;;;;;;;11.05;88.59;101237.06;5171579;28;20034;-72
2023/06/05 03:29:32;;;;;;;2.95;1.05;;;;;;;10.87;91.39;101230.63;5172295;28;20022;-72
2023/06/05 03:32:03;;;;;;;2.55;0.95;;;;;;;10.89;91.40;101232.28;5172963;28;20186;-72
2023/06/05 03:34:36;;;;;;;2.97;1.33;;;;;;;11.33;87.15;101226.72;5172981;28;20029;-72
2023/06/05 03:37:06;;;;;;;3.70;1.30;;;;;;;11.21;88.87;101229.66;5171658;28;20033;-72
2023/06/05 03:39:37;;;;;;;2.50;1.13;;;;;;;11.26;87.16;101233.03;5174678;28;20079;-72
2023/06/05 03:42:09;;;;;;;3.17;1.05;;;;;;;11.17;85.61;101231.53;5172298;28;20031;-72
2023/06/05 03:44:39;;;;;;;1.73;0.90;;;;;;;11.00;87.10;101229.41;5156147;28;20031;-72
2023/06/05 03:47:10;;;;;;;2.55;1.52;;;;;;;11.00;87.49;101234.63;5172132;28;20026;-72
2023/06/05 03:49:45;;;;;;;3.40;1.17;;;;;;;11.06;86.47;101236.19;5172901;28;20042;-71
2023/06/05 03:52:16;;;;;;;1.85;1.00;;;;;;;10.79;87.46;101237.78;5167596;28;20097;-72
2023/06/05 03:57:17;;;;;;;3.05;1.00;;;;;;;10.91;90.25;101234.88;5211876;23;20056;-70
2023/06/05 03:59:48;;;;;;;1.92;1.10;;;;;;;11.11;88.71;101239.50;5194005;28;20067;-69
2023/06/05 04:02:18;;;;;;;2.80;1.10;;;;;;;11.06;88.10;101238.78;5191860;28;20067;-69
2023/06/05 04:04:50;;;;;;;2.10;1.08;;;;;;;10.61;89.64;101251.31;5191740;28;20053;-69
2023/06/05 04:07:20;;;;;;;2.67;1.08;;;;;;;10.50;88.74;101253.38;5173966;28;20025;-70
2023/06/05 04:09:51;;;;;;;4.50;0.90;;;;;;;10.60;88.63;101250.50;5173160;28;20029;-70
2023/06/05 04:12:21;;;;;;;4.80;1.10;;;;;;;10.70;89.43;101258.97;5175336;28;20057;-70
2023/06/05 04:14:52;;;;;;;1.40;0.80;;;;;;;10.57;88.57;101261.03;5173977;28;20044;-70
2023/06/05 04:17:22;;;;;;;2.58;1.00;;;;;;;10.87;88.92;101259.38;5173399;28;20388;-68
2023/06/05 04:19:52;;;;;;;5.28;1.27;;;;;;;11.04;88.07;101247.56;5173663;28;20218;-70
2023/06/05 04:22:22;;;;;;;2.88;1.30;;;;;;;11.01;87.87;101247.66;5172614;28;20033;-70
2023/06/05 04:24:53;;;;;;;4.60;1.30;;;;;;;11.10;86.74;101253.50;5174108;28;20387;-70
2023/06/05 04:27:28;;;;;;;2.45;1.17;;;;;;;11.48;87.11;101245.44;5174495;28;20034;-69
2023/06/05 04:29:58;;;;;;;3.88;1.20;;;;;;;11.35;85.43;101254.56;5168772;28;20034;-70
2023/06/05 04:32:29;;;;;;;2.10;1.05;;;;;;;11.59;85.30;101259.13;5175221;28;20091;-70
2023/06/05 04:35:00;;;;;;;2.67;1.33;;;;;;;11.27;88.35;101256.50;5171114;28;20121;-70
2023/06/05 04:37:31;;;;;;;5.55;1.20;;;;;;;11.92;86.48;101247.66;5174958;28;20360;-69
2023/06/05 04:40:09;;;;;;;8.32;1.30;;;;;;;12.88;81.40;101246.25;5172391;28;20053;-69
2023/06/05 04:42:40;;;;;;;1.23;0.80;;;;;;;14.99;74.76;101234.44;5176088;28;20167;-71
2023/06/05 04:45:10;;;;;;;1.73;0.90;;;;;;;16.06;70.85;101230.41;5172401;28;20546;-71
2023/06/05 04:47:40;;;;;;;3.78;1.08;;;;;;;16.32;69.39;101231.78;5172250;28;20049;-70
2023/06/05 04:50:26;;;;;;;4.13;1.00;;;;;;;16.73;66.63;101228.84;5174076;28;20342;-71
2023/06/05 04:52:56;;;;;;;4.30;0.90;;;;;;;17.76;65.75;101235.72;5164689;28;20029;-70
2023/06/05 04:55:27;;;;;;;2.05;1.05;;;;;;;18.96;60.88;101222.53;5167927;28;20132;-70
2023/06/05 04:58:00;;;;;;;1.23;0.80;;;;;;;20.20;60.06;101223.59;5164861;28;20052;-71
2023/06/05 05:00:31;;;;;;;1.85;0.95;;;;;;;19.25;60.86;101234.09;5173791;28;20291;-70
2023/06/05 05:03:01;;;;;;;2.03;0.90;;;;;;;19.92;61.48;101226.31;5172483;28;20030;-70
2023/06/05 05:05:31;;;;;;;1.80;0.80;;;;;;;19.44;62.08;101229.38;5168897;28;20291;-70
2023/06/05 05:08:02;;;;;;;2.47;1.00;;;;;;;18.96;63.11;101237.59;5161516;28;20691;-70
2023/06/05 05:10:33;;;;;;;4.20;1.10;;;;;;;19.28;61.60;101224.13;5163701;28;21003;-71
2023/06/05 05:13:03;;;;;;;2.38;1.13;;;;;;;18.84;59.72;101225.91;5166276;28;20038;-71
2023/06/05 05:15:33;;;;;;;3.27;0.93;;;;;;;20.36;57.98;101214.56;5173970;28;20022;-71
2023/06/05 05:18:04;;;;;;;6.17;1.23;;;;;;;19.83;60.09;101219.78;5169887;28;20289;-71
2023/06/05 05:20:34;;;;;;;6.00;1.55;;;;;;;21.04;55.72;101216.13;5173550;28;20780;-71
2023/06/05 05:23:07;;;;;;;2.13;1.10;;;;;;;20.44;58.08;101214.88;5170151;28;20040;-71
2023/06/05 05:25:38;;;;;;;4.63;1.10;;;;;;;21.40;56.35;101221.56;5173089;28;20102;-71
2023/06/05 05:28:08;;;;;;;2.47;1.10;;;;;;;18.35;62.43;101234.13;5172661;28;20029;-71
2023/06/05 05:30:39;;;;;;;3.03;1.10;;;;;;;21.43;54.57;101224.00;5174875;28;20109;-71
2023/06/05 05:33:09;;;;;;;2.47;0.70;;;;;;;22.79;53.75;101222.78;5176129;28;20029;-70
2023/06/05 05:35:40;;;;;;;5.13;1.23;;;;;;;22.25;52.57;101218.00;5169526;28;20038;-68
2023/06/05 05:38:11;;;;;;;1.88;1.00;;;;;;;21.19;56.79;101234.53;5173074;28;20351;-71
2023/06/05 05:40:41;;;;;;;2.47;0.93;;;;;;;21.09;58.74;101230.78;5176075;28;20018;-71
2023/06/05 05:43:11;;;;;;;3.80;1.30;;;;;;;20.30;58.66;101236.19;5168823;28;20690;-71
2023/06/05 05:45:43;;;;;;;2.13;1.10;;;;;;;21.04;60.05;101232.91;5166287;28;20265;-70
2023/06/05 05:48:14;;;;;;;1.98;1.05;;;;;;;21.26;59.66;101232.31;5173003;28;20054;-70
2023/06/05 05:50:44;;;;;;;2.65;1.10;;;;;;;20.79;60.79;101229.34;5178052;28;20036;-70
2023/06/05 05:53:14;;;;;;;2.13;1.08;;;;;;;20.08;60.85;101227.91;5174283;28;20088;-71
2023/06/05 05:55:44;;;;;;;1.90;1.02;;;;;;;19.01;63.22;101236.38;5175525;28;20515;-71
2023/06/05 05:58:16;;;;;;;3.20;1.13;;;;;;;19.48;62.72;101230.88;5174034;28;20025;-71
2023/06/05 06:00:47;;;;;;;1.90;1.15;;;;;;;18.33;65.91;101235.19;5178164;28;20026;-70
2023/06/05 06:03:18;;;;;;;3.33;1.52;;;;;;;19.07;61.75;101236.00;5174322;28;20025;-70
2023/06/05 06:05:48;;;;;;;3.13;1.10;;;;;;;19.00;62.34;101242.63;5176958;28;20302;-69
2023/06/05 06:08:20;;;;;;;2.72;0.90;;;;;;;18.81;63.83;101239.34;5173652;28;20079;-70
2023/06/05 06:10:50;;;;;;;3.42;1.17;;;;;;;17.79;65.17;101244.34;5176642;28;20134;-71
2023/06/05 06:13:20;;;;;;;1.80;1.00;;;;;;;18.70;62.81;101240.06;5177639;28;20079;-71
2023/06/05 06:15:51;;;;;;;6.32;1.10;;;;;;;19.75;58.51;101237.13;5177304;28;20087;-71
2023/06/05 06:18:21;;;;;;;2.67;1.05;;;;;;;19.53;60.68;101239.38;5174588;28;20030;-71
2023/06/05 06:20:51;;;;;;;1.73;0.90;;;;;;;19.25;60.97;101242.88;5177079;28;20034;-70
2023/06/05 06:23:22;;;;;;;3.03;1.33;;;;;;;20.48;57.03;101237.63;5174664;28;20109;-71
2023/06/05 06:25:52;;;;;;;1.80;0.90;;;;;;;20.87;57.07;101235.03;5175792;28;20280;-70
2023/06/05 06:28:23;;;;;;;4.40;1.30;;;;;;;19.40;63.18;101243.72;5173926;28;20060;-71
2023/06/05 06:30:54;;;;;;;2.22;1.10;;;;;;;19.93;61.44;101242.13;5168940;28;20293;-71
2023/06/05 06:33:24;;;;;;;2.40;1.13;;;;;;;19.65;62.74;101234.16;5164763;28;20532;-70
2023/06/05 06:35:58;;;;;;;1.98;1.05;;;;;;;19.25;63.44;101240.22;5165760;28;20475;-71
2023/06/05 06:38:30;;;;;;;2.97;1.10;;;;;;;19.55;63.35;101237.50;5167596;28;20499;-71
2023/06/05 06:41:00;;;;;;;3.05;1.17;;;;;;;18.87;64.17;101238.97;5168068;28;20472;-71
2023/06/05 06:43:30;;;;;;;2.22;1.00;;;;;;;20.74;59.08;101236.78;5161714;28;20125;-70
2023/06/05 06:46:01;;;;;;;3.67;1.60;;;;;;;20.80;57.40;101244.31;5165443;28;20068;-69
2023/06/05 06:48:32;;;;;;;4.78;1.00;;;;;;;20.02;60.22;101254.84;5170200;28;20281;-69
2023/06/05 06:51:03;;;;;;;2.53;0.93;;;;;;;20.42;60.04;101247.78;5171031;28;20025;-70
2023/06/05 06:53:34;;;;;;;1.75;0.80;;;;;;;22.49;55.44;101239.34;5167218;28;20460;-70
2023/06/05 06:56:04;;;;;;;3.08;1.35;;;;;;;22.78;55.46;101241.53;5164755;28;20041;-70
2023/06/05 06:58:36;;;;;;;2.03;1.00;;;;;;;22.69;55.01;101236.91;5166310;28;20022;-71
2023/06/05 07:01:06;;;;;;;1.70;0.68;;;;;;;20.95;56.03;101251.31;5167637;28;20377;-71
2023/06/05 07:03:38;;;;;;;1.60;0.90;;;;;;;22.15;55.13;101256.06;5168173;28;20037;-71
2023/06/05 07:06:11;;;;;;;3.13;0.95;;;;;;;22.14;55.74;101254.38;5167270;28;20077;-70
2023/06/05 07:08:42;;;;;;;2.35;1.00;;;;;;;20.30;55.76;101262.72;5170305;28;20031;-70
2023/06/05 07:11:12;;;;;;;2.67;1.00;;;;;;;20.77;55.59;101257.81;5166684;28;20029;-70
2023/06/05 07:13:42;;;;;;;1.90;0.80;;;;;;;22.60;49.39;101250.06;5168990;28;20037;-71
2023/06/05 07:16:13;;;;;;;4.03;1.07;;;;;;;22.67;51.45;101247.69;5170281;28;20365;-71
2023/06/05 07:18:43;;;;;;;4.13;0.90;;;;;;;23.64;50.70;101243.69;5166190;28;20323;-71
2023/06/05 07:21:13;;;;;;;2.30;0.90;;;;;;;22.74;54.00;101248.94;5166536;28;20036;-71
2023/06/05 07:23:47;;;;;;;2.07;0.90;;;;;;;24.30;52.57;101241.00;5168671;28;20291;-71
2023/06/05 07:26:18;;;;;;;2.00;0.80;;;;;;;24.46;50.43;101242.28;5164430;28;22535;-71
2023/06/05 07:28:49;;;;;;;1.90;0.75;;;;;;;25.04;48.56;101236.47;5166917;28;20030;-70
2023/06/05 07:31:21;;;;;;;2.40;1.00;;;;;;;25.54;48.61;101241.03;5166295;28;20596;-72
2023/06/05 07:33:51;;;;;;;1.27;0.80;;;;;;;24.29;47.75;101242.84;5166782;28;20029;-70
2023/06/05 07:36:22;;;;;;;2.13;0.90;;;;;;;26.45;45.49;101229.22;5163916;28;20069;-71
2023/06/05 07:38:52;;;;;;;1.65;0.70;;;;;;;24.54;47.92;101242.53;5166814;28;20101;-71
2023/06/05 07:41:22;;;;;;;2.33;0.70;;;;;;;25.93;47.02;101237.56;5166073;28;20035;-71
2023/06/05 07:43:53;;;;;;;1.67;0.70;;;;;;;24.74;47.89;101239.91;5176490;28;20273;-71
2023/06/05 07:46:23;;;;;;;1.77;0.80;;;;;;;25.73;47.71;101228.59;5166553;28;20120;-71
2023/06/05 07:48:54;;;;;;;0.93;0.60;;;;;;;25.17;48.87;101234.47;5171555;28;20686;-71
2023/06/05 07:51:25;;;;;;;3.00;0.80;;;;;;;26.53;47.47;101227.56;5168372;28;20336;-71
2023/06/05 07:53:55;;;;;;;2.30;0.70;;;;;;;27.17;46.78;101217.97;5164223;28;20037;-70
2023/06/05 07:56:25;;;;;;;1.73;0.80;;;;;;;28.68;43.76;101216.38;5163946;28;20030;-72
2023/06/05 07:58:55;;;;;;;2.27;0.90;;;;;;;29.34;43.67;101223.00;5168262;28;20291;-71
2023/06/05 08:01:27;;;;;;;3.33;0.73;;;;;;;27.27;46.27;101222.31;5168821;28;20722;-71
2023/06/05 08:03:57;;;;;;;2.25;0.90;;;;;;;29.33;45.21;101214.09;5169835;28;20523;-71
2023/06/05 08:06:28;;;;;;;3.27;1.00;;;;;;;29.70;42.94;101211.97;5167675;28;20061;-71
2023/06/05 08:09:01;;;;;;;3.07;0.90;;;;;;;30.13;43.70;101219.09;5170983;28;20784;-71
2023/06/05 08:11:32;;;;;;;2.80;0.93;;;;;;;28.00;45.00;101229.56;5167374;28;20113;-70
2023/06/05 08:14:03;;;;;;;2.10;0.80;;;;;;;28.28;45.85;101223.19;5168921;28;20116;-69
2023/06/05 08:16:34;;;;;;;2.50;1.33;;;;;;;27.64;47.44;101223.19;5164941;28;20056;-71
2023/06/05 08:19:06;;;;;;;3.10;0.90;;;;;;;28.46;45.35;101224.91;5167211;28;20033;-70
2023/06/05 08:21:36;;;;;;;3.85;0.70;;;;;;;27.90;46.53;101216.19;5166794;28;20237;-71
2023/06/05 08:24:17;;;;;;;4.03;0.90;;;;;;;29.51;45.41;101211.34;5166794;28;20109;-72
2023/06/05 08:26:48;;;;;;;3.50;1.17;;;;;;;30.33;44.11;101209.69;5169202;28;20022;-70
2023/06/05 08:29:18;;;;;;;1.63;0.80;;;;;;;29.13;44.62;101212.59;5164911;28;20029;-71
2023/06/05 08:31:48;;;;;;;2.90;0.77;;;;;;;29.65;45.10;101208.06;5166445;28;20280;-71
2023/06/05 08:34:19;;;;;;;2.23;0.83;;;;;;;29.84;44.48;101208.66;5166004;28;20480;-71
2023/06/05 08:36:49;;;;;;;6.60;1.00;;;;;;;30.08;45.11;101195.28;5166061;28;20309;-71
2023/06/05 08:39:20;;;;;;;1.30;0.90;;;;;;;31.96;41.30;101194.72;5165639;28;20040;-71
2023/06/05 08:41:51;;;;;;;2.20;0.98;;;;;;;29.18;45.04;101198.66;5168962;28;20748;-71
2023/06/05 08:44:22;;;;;;;8.35;1.10;;;;;;;32.33;41.51;101192.16;5169506;28;20022;-71
2023/06/05 08:47:00;;;;;;;4.35;1.10;;;;;;;31.09;42.17;101190.34;5169570;28;20037;-71
2023/06/05 08:49:30;;;;;;;3.35;0.90;;;;;;;30.46;42.54;101194.69;5168414;28;20037;-72
2023/06/05 08:52:04;;;;;;;4.05;1.05;;;;;;;30.73;43.04;101193.56;5171013;28;20483;-71
2023/06/05 08:54:38;;;;;;;1.48;0.90;;;;;;;31.65;41.79;101182.16;5162718;28;20113;-71
2023/06/05 08:57:10;;;;;;;2.15;0.90;;;;;;;30.96;42.86;101184.63;5166895;28;20034;-71
2023/06/05 08:59:41;;;;;;;1.63;0.82;;;;;;;31.74;42.19;101179.25;5169563;28;20061;-71
2023/06/05 09:02:11;;;;;;;3.03;0.90;;;;;;;31.91;40.33;101171.91;5170232;28;20053;-71
2023/06/05 09:04:42;;;;;;;2.07;1.00;;;;;;;33.22;41.76;101176.91;5167761;28;20050;-72
2023/06/05 09:07:12;;;;;;;1.97;1.00;;;;;;;33.26;39.25;101170.94;5166811;28;20603;-71
2023/06/05 09:09:43;;;;;;;3.00;0.80;;;;;;;32.49;39.69;101164.13;5167932;28;20508;-71
2023/06/05 09:12:13;;;;;;;4.35;0.80;;;;;;;33.00;37.83;101162.34;5167784;28;20038;-72
2023/06/05 09:14:43;;;;;;;2.63;0.80;;;;;;;31.59;39.52;101169.31;5167585;28;20388;-72
2023/06/05 09:17:14;;;;;;;1.70;0.80;;;;;;;30.63;36.73;101177.53;5168964;28;20285;-71
2023/06/05 09:19:47;;;;;;;1.45;0.70;;;;;;;30.06;38.25;101174.91;5170738;28;20531;-71
2023/06/05 09:22:33;;;;;;;2.30;0.80;;;;;;;30.58;38.32;101168.28;5165016;28;20037;-72
2023/06/05 09:25:04;;;;;;;1.30;0.77;;;;;;;28.06;41.14;101173.38;5164689;28;20096;-71
2023/06/05 09:27:35;;;;;;;3.45;0.95;;;;;;;28.15;39.72;101175.13;5167262;28;20455;-71
2023/06/05 09:30:07;;;;;;;1.98;0.82;;;;;;;28.39;40.74;101171.88;5168234;28;20032;-71
2023/06/05 09:32:39;;;;;;;2.70;0.90;;;;;;;28.55;39.45;101174.72;5165259;28;20603;-71
2023/06/05 09:35:16;;;;;;;2.88;0.95;;;;;;;28.47;40.40;101170.09;5166254;28;20028;-71
2023/06/05 09:37:46;;;;;;;2.90;1.10;;;;;;;29.11;40.84;101170.66;5167737;28;20503;-70
2023/06/05 09:40:17;;;;;;;1.08;0.75;;;;;;;31.46;38.52;101158.19;5167881;28;20032;-72
2023/06/05 09:42:47;;;;;;;1.70;0.75;;;;;;;29.97;38.33;101160.53;5169254;28;20026;-72
2023/06/05 09:45:17;;;;;;;2.33;1.00;;;;;;;28.56;40.11;101171.03;5168788;28;20037;-71
2023/06/05 09:47:48;;;;;;;1.50;0.85;;;;;;;28.73;40.92;101171.84;5169498;28;20280;-71
2023/06/05 09:50:23;;;;;;;3.13;0.80;;;;;;;30.20;39.78;101158.06;5172015;28;20030;-71
2023/06/05 09:52:55;;;;;;;2.63;0.80;;;;;;;30.18;39.10;101147.44;5169788;28;20026;-72
2023/06/05 09:57:59;;;;;;;1.55;0.93;;;;;;;29.42;37.57;101150.31;5186143;28;20056;-74
2023/06/05 10:00:30;;;;;;;2.38;0.95;;;;;;;27.23;39.59;101161.84;5188616;28;20714;-74
2023/06/05 10:03:03;;;;;;;1.83;0.98;;;;;;;27.17;39.45;101159.75;5190609;28;20033;-74
2023/06/05 10:05:37;;;;;;;2.08;1.00;;;;;;;27.43;38.81;101155.41;5188781;28;20026;-73
2023/06/05 10:08:07;;;;;;;0.98;0.70;;;;;;;27.79;38.63;101148.34;5187252;28;20488;-74
2023/06/05 10:10:38;;;;;;;2.95;0.90;;;;;;;27.29;38.21;101141.63;5191857;28;20109;-73
2023/06/05 10:13:10;;;;;;;2.78;0.90;;;;;;;27.24;39.35;101130.50;5190845;28;20053;-74
2023/06/05 10:15:42;;;;;;;2.05;0.90;;;;;;;26.75;41.56;101141.47;5190702;28;20097;-73
2023/06/05 10:18:12;;;;;;;1.85;1.00;;;;;;;27.53;39.52;101131.19;5193258;28;20045;-73
2023/06/05 10:20:46;;;;;;;3.33;1.10;;;;;;;27.16;39.92;101125.00;5193141;28;20482;-73
2023/06/05 10:23:19;;;;;;;2.60;0.90;;;;;;;27.66;39.49;101129.00;5192342;28;20025;-73
2023/06/05 10:25:51;;;;;;;3.08;0.95;;;;;;;27.65;42.86;101128.16;5192766;28;20029;-73
2023/06/05 10:28:34;;;;;;;3.05;1.00;;;;;;;26.61;39.73;101133.00;5193338;28;20025;-73
2023/06/05 10:31:18;;;;;;;0.80;0.63;;;;;;;26.42;38.91;101127.59;5190715;28;20682;-73
2023/06/05 10:34:03;;;;;;;1.58;0.80;;;;;;;26.60;40.64;101121.44;5193004;28;20044;-72
2023/06/05 10:36:52;;;;;;;1.92;0.70;;;;;;;26.82;40.42;101121.97;5193942;28;20458;-72
2023/06/05 10:39:25;;;;;;;4.13;0.82;;;;;;;26.55;41.73;101126.34;5195232;28;20439;-73
2023/06/05 10:41:57;;;;;;;4.05;1.00;;;;;;;26.60;40.88;101124.13;5191929;28;20411;-72
2023/06/05 10:44:43;;;;;;;4.45;0.82;;;;;;;26.25;40.51;101118.44;5187623;28;20036;-73
2023/06/05 10:47:31;;;;;;;1.42;0.80;;;;;;;26.37;41.17;101124.50;5194535;28;20025;-72
2023/06/05 10:50:21;;;;;;;1.92;0.90;;;;;;;26.88;39.71;101126.75;5187057;28;20112;-72
2023/06/05 10:52:53;;;;;;;2.45;0.98;;;;;;;26.13;39.93;101122.25;5191231;28;20614;-73
2023/06/05 10:55:24;;;;;;;1.25;0.73;;;;;;;26.44;42.57;101120.25;5189263;28;20044;-73
2023/06/05 10:58:01;;;;;;;1.77;0.80;;;;;;;26.53;42.27;101122.97;5192512;28;20036;-72
2023/06/05 11:00:31;;;;;;;3.25;1.00;;;;;;;25.91;41.25;101119.84;5189389;28;20048;-73
2023/06/05 11:03:02;;;;;;;2.70;0.95;;;;;;;25.67;42.82;101124.66;5189023;28;20025;-71
2023/06/05 11:05:32;;;;;;;2.60;1.10;;;;;;;26.05;42.00;101121.25;5188483;28;20037;-72
2023/06/05 11:08:14;;;;;;;2.40;0.93;;;;;;;25.03;42.66;101122.41;5192080;28;20487;-73
2023/06/05 11:11:09;;;;;;;2.00;1.10;;;;;;;25.83;43.04;101119.63;5191210;28;20030;-73
2023/06/05 11:13:55;;;;;;;1.85;1.00;;;;;;;25.82;40.99;101101.03;5190441;28;20024;-73
2023/06/05 11:16:30;;;;;;;1.33;0.77;;;;;;;26.14;41.50;101107.84;5191184;28;20029;-73
2023/06/05 11:19:15;;;;;;;2.00;1.00;;;;;;;26.09;41.18;101101.22;5192190;28;20032;-72
2023/06/05 11:22:02;;;;;;;2.08;1.00;;;;;;;25.96;43.09;101103.31;5190048;28;20039;-73
2023/06/05 11:24:34;;;;;;;1.85;0.93;;;;;;;25.06;42.63;101111.44;5191542;28;20107;-72
2023/06/05 11:27:08;;;;;;;2.88;1.00;;;;;;;25.39;42.34;101108.50;5191090;28;20033;-73
2023/06/05 11:29:43;;;;;;;1.60;0.98;;;;;;;25.84;41.51;101093.69;5191936;28;20395;-73
2023/06/05 11:32:13;;;;;;;8.97;1.00;;;;;;;26.06;41.47;101088.09;5193160;28;20040;-73
2023/06/05 11:34:47;;;;;;;1.77;0.80;;;;;;;25.90;41.31;101088.66;5192285;28;20026;-73
2023/06/05 11:37:18;;;;;;;6.07;0.98;;;;;;;25.83;40.83;101083.97;5194102;28;20219;-71
2023/06/05 11:39:48;;;;;;;1.63;0.90;;;;;;;26.06;40.44;101085.44;5193561;28;20032;-73
2023/06/05 11:42:23;;;;;;;1.90;0.98;;;;;;;26.23;40.98;101079.34;5194649;28;20017;-73
2023/06/05 11:44:53;;;;;;;2.05;1.00;;;;;;;26.42;40.92;101079.34;5190463;28;20117;-72
2023/06/05 11:47:30;;;;;;;1.90;0.88;;;;;;;26.16;40.14;101088.97;5193465;28;20030;-73
2023/06/05 11:50:11;;;;;;;2.40;0.90;;;;;;;26.16;39.91;101080.94;5189731;28;20499;-73